Heathsville, Illinois
Current Conditions -  °F | °C
As of 4:15 PM on Wednesday 28 Jan 2015 (Local Time) from KRSV Reporting Station
Clear Clear  
Wind Chill:   Ceiling: Unl
Heat Index:   Visibility: 10mi
Dew Point: -4°   Wind: 13mph
Humidity: 56%   Direction: 130°SE
Pressure: 30.15"   Gusts: NA
Location:  38.904°N, 87.665°W
Report Text: KRSV 282215Z AUTO 13011KT 10SM CLR 04/M04 A3015 RMK AO2 T00401041
Loading
Personal Weather Stations






























Interactive Weather Map New forecast layout! Learn more

10-Day Weather Forecast

Advertisements
Track Severe Weather on mobile